sensor_id;sensor_type;location;lat;lon;timestamp;P1;durP1;ratioP1;P2;durP2;ratioP2
22603;SDS011;11469;49.024;8.246;2023-02-08T00:01:15;32.55;;;14.95;;
22603;SDS011;11469;49.024;8.246;2023-02-08T00:03:43;32.33;;;15.65;;
22603;SDS011;11469;49.024;8.246;2023-02-08T00:06:09;32.92;;;16.08;;
22603;SDS011;11469;49.024;8.246;2023-02-08T00:08:34;36.22;;;16.23;;
22603;SDS011;11469;49.024;8.246;2023-02-08T00:11:00;40.58;;;15.90;;
22603;SDS011;11469;49.024;8.246;2023-02-08T00:13:26;32.38;;;15.50;;
22603;SDS011;11469;49.024;8.246;2023-02-08T00:15:52;37.75;;;16.20;;
22603;SDS011;11469;49.024;8.246;2023-02-08T00:18:19;32.03;;;15.95;;
22603;SDS011;11469;49.024;8.246;2023-02-08T00:20:45;34.03;;;15.38;;
22603;SDS011;11469;49.024;8.246;2023-02-08T00:23:11;32.65;;;15.70;;
22603;SDS011;11469;49.024;8.246;2023-02-08T00:25:38;31.25;;;15.10;;
22603;SDS011;11469;49.024;8.246;2023-02-08T00:28:05;37.13;;;15.13;;
22603;SDS011;11469;49.024;8.246;2023-02-08T00:30:31;33.55;;;15.88;;
22603;SDS011;11469;49.024;8.246;2023-02-08T00:32:59;37.28;;;15.77;;
22603;SDS011;11469;49.024;8.246;2023-02-08T00:35:25;33.80;;;15.10;;
22603;SDS011;11469;49.024;8.246;2023-02-08T00:37:51;31.27;;;15.73;;
22603;SDS011;11469;49.024;8.246;2023-02-08T00:40:17;33.15;;;14.50;;
22603;SDS011;11469;49.024;8.246;2023-02-08T00:42:42;33.63;;;16.10;;
22603;SDS011;11469;49.024;8.246;2023-02-08T00:45:08;34.25;;;15.25;;
22603;SDS011;11469;49.024;8.246;2023-02-08T00:47:33;33.40;;;14.18;;
22603;SDS011;11469;49.024;8.246;2023-02-08T00:49:59;30.88;;;14.30;;
22603;SDS011;11469;49.024;8.246;2023-02-08T00:52:24;37.10;;;14.63;;
22603;SDS011;11469;49.024;8.246;2023-02-08T00:54:49;32.17;;;15.00;;
22603;SDS011;11469;49.024;8.246;2023-02-08T00:57:15;32.70;;;15.45;;
22603;SDS011;11469;49.024;8.246;2023-02-08T00:59:40;35.38;;;15.23;;
22603;SDS011;11469;49.024;8.246;2023-02-08T01:02:05;32.30;;;15.35;;
22603;SDS011;11469;49.024;8.246;2023-02-08T01:04:31;35.83;;;16.35;;
22603;SDS011;11469;49.024;8.246;2023-02-08T01:06:56;32.83;;;15.07;;
22603;SDS011;11469;49.024;8.246;2023-02-08T01:09:22;38.88;;;14.73;;
22603;SDS011;11469;49.024;8.246;2023-02-08T01:11:48;33.63;;;15.50;;
22603;SDS011;11469;49.024;8.246;2023-02-08T01:14:14;35.88;;;15.65;;
22603;SDS011;11469;49.024;8.246;2023-02-08T01:16:39;35.83;;;15.73;;
22603;SDS011;11469;49.024;8.246;2023-02-08T01:19:05;35.30;;;16.55;;
22603;SDS011;11469;49.024;8.246;2023-02-08T01:21:31;33.15;;;15.57;;
22603;SDS011;11469;49.024;8.246;2023-02-08T01:23:59;30.10;;;14.57;;
22603;SDS011;11469;49.024;8.246;2023-02-08T01:26:25;33.00;;;14.93;;
22603;SDS011;11469;49.024;8.246;2023-02-08T01:28:51;33.58;;;15.55;;
22603;SDS011;11469;49.024;8.246;2023-02-08T01:31:18;32.33;;;15.90;;
22603;SDS011;11469;49.024;8.246;2023-02-08T01:33:48;31.73;;;15.68;;
22603;SDS011;11469;49.024;8.246;2023-02-08T01:36:14;30.23;;;14.43;;
22603;SDS011;11469;49.024;8.246;2023-02-08T01:38:40;29.27;;;15.25;;
22603;SDS011;11469;49.024;8.246;2023-02-08T01:41:07;31.20;;;14.55;;
22603;SDS011;11469;49.024;8.246;2023-02-08T01:46:35;40.75;;;15.20;;
22603;SDS011;11469;49.024;8.246;2023-02-08T01:49:08;32.58;;;14.57;;
22603;SDS011;11469;49.024;8.246;2023-02-08T01:51:39;34.10;;;16.85;;
22603;SDS011;11469;49.024;8.246;2023-02-08T01:54:09;31.23;;;15.40;;
22603;SDS011;11469;49.024;8.246;2023-02-08T01:56:38;30.00;;;14.00;;
22603;SDS011;11469;49.024;8.246;2023-02-08T01:59:10;32.85;;;14.75;;
22603;SDS011;11469;49.024;8.246;2023-02-08T02:01:42;27.10;;;14.27;;
22603;SDS011;11469;49.024;8.246;2023-02-08T02:04:10;32.85;;;14.75;;
22603;SDS011;11469;49.024;8.246;2023-02-08T02:06:38;30.88;;;13.70;;
22603;SDS011;11469;49.024;8.246;2023-02-08T02:11:37;32.00;;;13.48;;
22603;SDS011;11469;49.024;8.246;2023-02-08T02:14:03;30.70;;;14.55;;
22603;SDS011;11469;49.024;8.246;2023-02-08T02:16:30;40.13;;;13.73;;
22603;SDS011;11469;49.024;8.246;2023-02-08T02:18:55;31.30;;;14.68;;
22603;SDS011;11469;49.024;8.246;2023-02-08T02:21:28;34.67;;;14.57;;
22603;SDS011;11469;49.024;8.246;2023-02-08T02:32:37;31.13;;;13.98;;
22603;SDS011;11469;49.024;8.246;2023-02-08T02:38:19;26.95;;;13.93;;
22603;SDS011;11469;49.024;8.246;2023-02-08T02:41:08;28.80;;;12.95;;
22603;SDS011;11469;49.024;8.246;2023-02-08T02:44:03;30.48;;;13.43;;
22603;SDS011;11469;49.024;8.246;2023-02-08T02:46:37;30.70;;;14.93;;
22603;SDS011;11469;49.024;8.246;2023-02-08T02:52:02;41.72;;;18.00;;
22603;SDS011;11469;49.024;8.246;2023-02-08T02:54:37;30.30;;;15.05;;
22603;SDS011;11469;49.024;8.246;2023-02-08T02:57:24;36.92;;;15.65;;
22603;SDS011;11469;49.024;8.246;2023-02-08T02:59:53;35.33;;;15.85;;
22603;SDS011;11469;49.024;8.246;2023-02-08T03:02:19;38.13;;;18.00;;
22603;SDS011;11469;49.024;8.246;2023-02-08T03:04:47;31.92;;;15.45;;
22603;SDS011;11469;49.024;8.246;2023-02-08T03:07:39;30.42;;;14.23;;
22603;SDS011;11469;49.024;8.246;2023-02-08T03:10:32;30.33;;;13.65;;
22603;SDS011;11469;49.024;8.246;2023-02-08T03:13:05;28.27;;;13.88;;
22603;SDS011;11469;49.024;8.246;2023-02-08T03:20:48;28.45;;;13.98;;
22603;SDS011;11469;49.024;8.246;2023-02-08T03:23:22;30.27;;;13.95;;
22603;SDS011;11469;49.024;8.246;2023-02-08T03:26:01;28.48;;;13.40;;
22603;SDS011;11469;49.024;8.246;2023-02-08T03:28:39;26.17;;;12.90;;
22603;SDS011;11469;49.024;8.246;2023-02-08T03:31:15;30.08;;;14.77;;
22603;SDS011;11469;49.024;8.246;2023-02-08T03:36:33;30.90;;;15.25;;
22603;SDS011;11469;49.024;8.246;2023-02-08T03:39:15;32.15;;;14.88;;
22603;SDS011;11469;49.024;8.246;2023-02-08T03:41:45;29.77;;;15.32;;
22603;SDS011;11469;49.024;8.246;2023-02-08T03:44:15;28.48;;;14.27;;
22603;SDS011;11469;49.024;8.246;2023-02-08T03:46:51;35.80;;;14.88;;
22603;SDS011;11469;49.024;8.246;2023-02-08T03:49:26;30.30;;;14.35;;
22603;SDS011;11469;49.024;8.246;2023-02-08T03:51:58;35.05;;;14.60;;
22603;SDS011;11469;49.024;8.246;2023-02-08T03:54:27;31.30;;;14.45;;
22603;SDS011;11469;49.024;8.246;2023-02-08T03:57:11;32.47;;;14.30;;
22603;SDS011;11469;49.024;8.246;2023-02-08T03:59:42;38.00;;;14.77;;
22603;SDS011;11469;49.024;8.246;2023-02-08T04:02:13;29.92;;;14.25;;
22603;SDS011;11469;49.024;8.246;2023-02-08T04:04:44;25.83;;;12.60;;
22603;SDS011;11469;49.024;8.246;2023-02-08T04:07:13;29.60;;;13.25;;
22603;SDS011;11469;49.024;8.246;2023-02-08T04:09:40;31.70;;;13.98;;
22603;SDS011;11469;49.024;8.246;2023-02-08T04:12:05;31.42;;;13.70;;
22603;SDS011;11469;49.024;8.246;2023-02-08T04:14:31;27.13;;;12.65;;
22603;SDS011;11469;49.024;8.246;2023-02-08T04:16:56;30.35;;;13.63;;
22603;SDS011;11469;49.024;8.246;2023-02-08T04:19:22;35.03;;;14.60;;
22603;SDS011;11469;49.024;8.246;2023-02-08T04:21:47;29.25;;;13.60;;
22603;SDS011;11469;49.024;8.246;2023-02-08T04:24:13;37.05;;;15.48;;
22603;SDS011;11469;49.024;8.246;2023-02-08T04:26:38;30.58;;;13.60;;
22603;SDS011;11469;49.024;8.246;2023-02-08T04:29:03;34.30;;;14.20;;
22603;SDS011;11469;49.024;8.246;2023-02-08T04:31:29;33.08;;;13.88;;
22603;SDS011;11469;49.024;8.246;2023-02-08T04:33:54;26.15;;;13.18;;
22603;SDS011;11469;49.024;8.246;2023-02-08T04:36:20;34.08;;;14.73;;
22603;SDS011;11469;49.024;8.246;2023-02-08T04:38:45;31.00;;;14.48;;
22603;SDS011;11469;49.024;8.246;2023-02-08T04:41:10;35.03;;;14.73;;
22603;SDS011;11469;49.024;8.246;2023-02-08T04:43:36;25.52;;;13.23;;
22603;SDS011;11469;49.024;8.246;2023-02-08T04:46:01;31.13;;;13.85;;
22603;SDS011;11469;49.024;8.246;2023-02-08T04:48:27;28.92;;;14.23;;
22603;SDS011;11469;49.024;8.246;2023-02-08T04:50:56;33.13;;;15.13;;
22603;SDS011;11469;49.024;8.246;2023-02-08T04:53:23;32.13;;;14.45;;
22603;SDS011;11469;49.024;8.246;2023-02-08T04:55:49;36.35;;;15.15;;
22603;SDS011;11469;49.024;8.246;2023-02-08T04:58:15;32.17;;;14.38;;
22603;SDS011;11469;49.024;8.246;2023-02-08T05:00:41;40.30;;;16.80;;
22603;SDS011;11469;49.024;8.246;2023-02-08T05:03:06;47.15;;;19.38;;
22603;SDS011;11469;49.024;8.246;2023-02-08T05:05:32;55.78;;;20.70;;
22603;SDS011;11469;49.024;8.246;2023-02-08T05:07:57;42.55;;;18.67;;
22603;SDS011;11469;49.024;8.246;2023-02-08T05:10:23;44.10;;;19.65;;
22603;SDS011;11469;49.024;8.246;2023-02-08T05:12:48;36.13;;;16.40;;
22603;SDS011;11469;49.024;8.246;2023-02-08T05:15:14;33.65;;;16.27;;
22603;SDS011;11469;49.024;8.246;2023-02-08T05:17:39;34.10;;;15.02;;
22603;SDS011;11469;49.024;8.246;2023-02-08T05:20:05;36.40;;;15.00;;
22603;SDS011;11469;49.024;8.246;2023-02-08T05:22:32;30.10;;;14.27;;
22603;SDS011;11469;49.024;8.246;2023-02-08T05:24:58;34.22;;;15.98;;
22603;SDS011;11469;49.024;8.246;2023-02-08T05:27:23;29.30;;;13.68;;
22603;SDS011;11469;49.024;8.246;2023-02-08T05:29:49;29.70;;;13.60;;
22603;SDS011;11469;49.024;8.246;2023-02-08T05:32:15;39.75;;;14.65;;
22603;SDS011;11469;49.024;8.246;2023-02-08T05:34:40;33.63;;;14.30;;
22603;SDS011;11469;49.024;8.246;2023-02-08T05:37:06;30.58;;;13.02;;
22603;SDS011;11469;49.024;8.246;2023-02-08T05:39:31;34.30;;;15.10;;
22603;SDS011;11469;49.024;8.246;2023-02-08T05:41:57;29.58;;;14.13;;
22603;SDS011;11469;49.024;8.246;2023-02-08T05:44:22;32.78;;;14.95;;
22603;SDS011;11469;49.024;8.246;2023-02-08T05:46:47;32.95;;;14.70;;
22603;SDS011;11469;49.024;8.246;2023-02-08T05:49:13;30.08;;;13.45;;
22603;SDS011;11469;49.024;8.246;2023-02-08T05:51:38;32.35;;;15.07;;
22603;SDS011;11469;49.024;8.246;2023-02-08T05:54:04;33.72;;;14.18;;
22603;SDS011;11469;49.024;8.246;2023-02-08T05:56:29;36.92;;;14.95;;
22603;SDS011;11469;49.024;8.246;2023-02-08T05:58:55;33.78;;;14.55;;
22603;SDS011;11469;49.024;8.246;2023-02-08T06:01:20;27.30;;;13.77;;
22603;SDS011;11469;49.024;8.246;2023-02-08T06:03:46;34.25;;;13.85;;
22603;SDS011;11469;49.024;8.246;2023-02-08T06:06:11;32.28;;;14.32;;
22603;SDS011;11469;49.024;8.246;2023-02-08T06:08:37;28.15;;;13.68;;
22603;SDS011;11469;49.024;8.246;2023-02-08T06:11:04;28.65;;;13.80;;
22603;SDS011;11469;49.024;8.246;2023-02-08T06:13:30;36.05;;;15.02;;
22603;SDS011;11469;49.024;8.246;2023-02-08T06:15:55;32.33;;;13.27;;
22603;SDS011;11469;49.024;8.246;2023-02-08T06:18:21;33.65;;;14.25;;
22603;SDS011;11469;49.024;8.246;2023-02-08T06:20:46;37.90;;;14.98;;
22603;SDS011;11469;49.024;8.246;2023-02-08T06:23:12;33.22;;;14.63;;
22603;SDS011;11469;49.024;8.246;2023-02-08T06:25:37;38.35;;;16.15;;
22603;SDS011;11469;49.024;8.246;2023-02-08T06:28:03;54.67;;;22.52;;
22603;SDS011;11469;49.024;8.246;2023-02-08T06:30:28;35.45;;;17.60;;
22603;SDS011;11469;49.024;8.246;2023-02-08T06:32:54;37.88;;;15.93;;
22603;SDS011;11469;49.024;8.246;2023-02-08T06:35:19;32.03;;;15.48;;
22603;SDS011;11469;49.024;8.246;2023-02-08T06:37:45;42.05;;;17.48;;
22603;SDS011;11469;49.024;8.246;2023-02-08T06:40:10;32.08;;;15.35;;
22603;SDS011;11469;49.024;8.246;2023-02-08T06:42:36;34.10;;;15.02;;
22603;SDS011;11469;49.024;8.246;2023-02-08T06:45:01;32.00;;;13.23;;
22603;SDS011;11469;49.024;8.246;2023-02-08T06:47:27;34.15;;;15.88;;
22603;SDS011;11469;49.024;8.246;2023-02-08T06:49:52;39.95;;;17.10;;
22603;SDS011;11469;49.024;8.246;2023-02-08T06:52:18;43.05;;;16.77;;
22603;SDS011;11469;49.024;8.246;2023-02-08T06:54:45;35.33;;;16.80;;
22603;SDS011;11469;49.024;8.246;2023-02-08T06:57:10;37.70;;;17.30;;
22603;SDS011;11469;49.024;8.246;2023-02-08T06:59:38;37.75;;;15.77;;
22603;SDS011;11469;49.024;8.246;2023-02-08T07:02:04;35.45;;;16.45;;
22603;SDS011;11469;49.024;8.246;2023-02-08T07:04:30;29.20;;;14.60;;
22603;SDS011;11469;49.024;8.246;2023-02-08T07:06:55;34.15;;;15.50;;
22603;SDS011;11469;49.024;8.246;2023-02-08T07:09:21;34.00;;;13.95;;
22603;SDS011;11469;49.024;8.246;2023-02-08T07:11:47;31.83;;;14.95;;
22603;SDS011;11469;49.024;8.246;2023-02-08T07:14:12;32.45;;;14.32;;
22603;SDS011;11469;49.024;8.246;2023-02-08T07:16:38;34.67;;;16.05;;
22603;SDS011;11469;49.024;8.246;2023-02-08T07:19:04;35.35;;;15.18;;
22603;SDS011;11469;49.024;8.246;2023-02-08T07:21:30;33.45;;;14.23;;
22603;SDS011;11469;49.024;8.246;2023-02-08T07:23:55;32.35;;;14.95;;
22603;SDS011;11469;49.024;8.246;2023-02-08T07:26:21;33.05;;;14.30;;
22603;SDS011;11469;49.024;8.246;2023-02-08T07:28:46;31.70;;;15.00;;
22603;SDS011;11469;49.024;8.246;2023-02-08T07:31:12;27.63;;;13.75;;
22603;SDS011;11469;49.024;8.246;2023-02-08T07:33:41;33.95;;;14.95;;
22603;SDS011;11469;49.024;8.246;2023-02-08T07:36:07;31.80;;;14.98;;
22603;SDS011;11469;49.024;8.246;2023-02-08T07:38:34;39.03;;;16.08;;
22603;SDS011;11469;49.024;8.246;2023-02-08T07:41:04;31.05;;;15.52;;
22603;SDS011;11469;49.024;8.246;2023-02-08T07:43:35;32.00;;;15.40;;
22603;SDS011;11469;49.024;8.246;2023-02-08T07:46:08;31.23;;;11.80;;
22603;SDS011;11469;49.024;8.246;2023-02-08T07:48:35;34.35;;;14.25;;
22603;SDS011;11469;49.024;8.246;2023-02-08T07:51:01;33.40;;;14.82;;
22603;SDS011;11469;49.024;8.246;2023-02-08T07:53:27;34.92;;;15.25;;
22603;SDS011;11469;49.024;8.246;2023-02-08T07:55:53;30.38;;;13.43;;
22603;SDS011;11469;49.024;8.246;2023-02-08T07:58:19;33.47;;;15.02;;
22603;SDS011;11469;49.024;8.246;2023-02-08T08:00:44;30.33;;;13.75;;
22603;SDS011;11469;49.024;8.246;2023-02-08T08:03:09;35.85;;;14.57;;
22603;SDS011;11469;49.024;8.246;2023-02-08T08:05:35;30.48;;;14.43;;
22603;SDS011;11469;49.024;8.246;2023-02-08T08:08:00;27.85;;;12.05;;
22603;SDS011;11469;49.024;8.246;2023-02-08T08:10:26;31.02;;;13.68;;
22603;SDS011;11469;49.024;8.246;2023-02-08T08:12:51;33.30;;;14.30;;
22603;SDS011;11469;49.024;8.246;2023-02-08T08:15:16;34.92;;;14.68;;
22603;SDS011;11469;49.024;8.246;2023-02-08T08:17:42;33.33;;;14.50;;
22603;SDS011;11469;49.024;8.246;2023-02-08T08:20:11;28.45;;;14.27;;
22603;SDS011;11469;49.024;8.246;2023-02-08T08:22:36;30.92;;;13.60;;
22603;SDS011;11469;49.024;8.246;2023-02-08T08:25:02;37.85;;;14.82;;
22603;SDS011;11469;49.024;8.246;2023-02-08T08:27:27;32.50;;;14.25;;
22603;SDS011;11469;49.024;8.246;2023-02-08T08:29:53;31.92;;;13.73;;
22603;SDS011;11469;49.024;8.246;2023-02-08T08:32:18;34.75;;;14.35;;
22603;SDS011;11469;49.024;8.246;2023-02-08T08:34:43;27.35;;;12.95;;
22603;SDS011;11469;49.024;8.246;2023-02-08T08:37:09;32.30;;;13.57;;
22603;SDS011;11469;49.024;8.246;2023-02-08T08:39:34;36.17;;;15.10;;
22603;SDS011;11469;49.024;8.246;2023-02-08T08:42:01;32.40;;;13.75;;
22603;SDS011;11469;49.024;8.246;2023-02-08T08:44:30;28.10;;;13.30;;
22603;SDS011;11469;49.024;8.246;2023-02-08T08:46:56;33.55;;;15.13;;
22603;SDS011;11469;49.024;8.246;2023-02-08T08:49:22;36.75;;;14.93;;
22603;SDS011;11469;49.024;8.246;2023-02-08T08:51:48;31.95;;;14.07;;
22603;SDS011;11469;49.024;8.246;2023-02-08T08:54:14;34.42;;;13.93;;
22603;SDS011;11469;49.024;8.246;2023-02-08T08:56:40;24.48;;;10.32;;
22603;SDS011;11469;49.024;8.246;2023-02-08T08:59:06;34.13;;;13.93;;
22603;SDS011;11469;49.024;8.246;2023-02-08T09:01:31;32.00;;;13.85;;
22603;SDS011;11469;49.024;8.246;2023-02-08T09:03:57;35.97;;;13.45;;
22603;SDS011;11469;49.024;8.246;2023-02-08T09:06:22;29.25;;;13.77;;
22603;SDS011;11469;49.024;8.246;2023-02-08T09:08:47;31.50;;;13.10;;
22603;SDS011;11469;49.024;8.246;2023-02-08T09:11:13;29.35;;;13.05;;
22603;SDS011;11469;49.024;8.246;2023-02-08T09:13:39;27.67;;;12.88;;
22603;SDS011;11469;49.024;8.246;2023-02-08T09:16:06;27.58;;;12.52;;
22603;SDS011;11469;49.024;8.246;2023-02-08T09:18:37;27.13;;;11.57;;
22603;SDS011;11469;49.024;8.246;2023-02-08T09:21:06;28.48;;;12.00;;
22603;SDS011;11469;49.024;8.246;2023-02-08T09:23:39;29.52;;;13.25;;
22603;SDS011;11469;49.024;8.246;2023-02-08T09:26:05;29.75;;;12.70;;
22603;SDS011;11469;49.024;8.246;2023-02-08T09:28:32;28.95;;;14.35;;
22603;SDS011;11469;49.024;8.246;2023-02-08T09:30:58;33.13;;;14.20;;
22603;SDS011;11469;49.024;8.246;2023-02-08T09:33:26;29.40;;;10.07;;
22603;SDS011;11469;49.024;8.246;2023-02-08T09:35:51;29.73;;;13.95;;
22603;SDS011;11469;49.024;8.246;2023-02-08T09:38:17;29.02;;;13.75;;
22603;SDS011;11469;49.024;8.246;2023-02-08T09:40:53;31.80;;;11.95;;
22603;SDS011;11469;49.024;8.246;2023-02-08T09:46:22;28.40;;;13.15;;
22603;SDS011;11469;49.024;8.246;2023-02-08T09:48:50;29.65;;;14.02;;
22603;SDS011;11469;49.024;8.246;2023-02-08T09:56:39;28.98;;;14.18;;
22603;SDS011;11469;49.024;8.246;2023-02-08T09:59:40;35.30;;;14.98;;
22603;SDS011;11469;49.024;8.246;2023-02-08T10:02:01;29.00;;;14.05;;
22603;SDS011;11469;49.024;8.246;2023-02-08T10:04:54;29.50;;;13.55;;
22603;SDS011;11469;49.024;8.246;2023-02-08T10:07:20;32.03;;;14.43;;
22603;SDS011;11469;49.024;8.246;2023-02-08T10:09:45;30.73;;;14.25;;
22603;SDS011;11469;49.024;8.246;2023-02-08T10:28:39;31.23;;;12.05;;
22603;SDS011;11469;49.024;8.246;2023-02-08T10:36:41;31.48;;;13.48;;
22603;SDS011;11469;49.024;8.246;2023-02-08T10:39:14;30.63;;;13.70;;
22603;SDS011;11469;49.024;8.246;2023-02-08T10:41:42;32.58;;;13.93;;
22603;SDS011;11469;49.024;8.246;2023-02-08T10:44:19;34.13;;;13.70;;
22603;SDS011;11469;49.024;8.246;2023-02-08T10:50:12;30.83;;;13.68;;
22603;SDS011;11469;49.024;8.246;2023-02-08T10:52:17;27.25;;;12.85;;
22603;SDS011;11469;49.024;8.246;2023-02-08T10:54:43;27.98;;;13.52;;
22603;SDS011;11469;49.024;8.246;2023-02-08T10:57:19;29.25;;;12.35;;
22603;SDS011;11469;49.024;8.246;2023-02-08T11:00:09;23.35;;;11.13;;
22603;SDS011;11469;49.024;8.246;2023-02-08T11:02:39;25.02;;;11.77;;
22603;SDS011;11469;49.024;8.246;2023-02-08T11:05:11;32.92;;;12.90;;
22603;SDS011;11469;49.024;8.246;2023-02-08T11:07:38;28.40;;;12.18;;
22603;SDS011;11469;49.024;8.246;2023-02-08T11:10:19;48.00;;;14.40;;
22603;SDS011;11469;49.024;8.246;2023-02-08T11:13:19;29.30;;;12.60;;
22603;SDS011;11469;49.024;8.246;2023-02-08T11:15:48;32.53;;;12.38;;
22603;SDS011;11469;49.024;8.246;2023-02-08T11:18:20;24.20;;;11.73;;
22603;SDS011;11469;49.024;8.246;2023-02-08T11:20:50;29.55;;;12.40;;
22603;SDS011;11469;49.024;8.246;2023-02-08T11:23:28;20.92;;;8.95;;
22603;SDS011;11469;49.024;8.246;2023-02-08T11:26:15;31.55;;;11.93;;
22603;SDS011;11469;49.024;8.246;2023-02-08T11:29:04;29.27;;;12.30;;
22603;SDS011;11469;49.024;8.246;2023-02-08T11:31:35;27.90;;;11.52;;
22603;SDS011;11469;49.024;8.246;2023-02-08T11:34:04;27.60;;;12.10;;
22603;SDS011;11469;49.024;8.246;2023-02-08T11:36:34;27.55;;;12.68;;
22603;SDS011;11469;49.024;8.246;2023-02-08T11:39:14;26.67;;;11.38;;
22603;SDS011;11469;49.024;8.246;2023-02-08T11:41:43;31.42;;;12.07;;
22603;SDS011;11469;49.024;8.246;2023-02-08T11:44:12;28.50;;;12.75;;
22603;SDS011;11469;49.024;8.246;2023-02-08T11:46:46;29.38;;;11.93;;
22603;SDS011;11469;49.024;8.246;2023-02-08T11:49:21;22.38;;;11.13;;
22603;SDS011;11469;49.024;8.246;2023-02-08T11:51:49;27.88;;;12.32;;
22603;SDS011;11469;49.024;8.246;2023-02-08T11:54:33;27.52;;;11.70;;
22603;SDS011;11469;49.024;8.246;2023-02-08T11:57:08;29.55;;;13.73;;
22603;SDS011;11469;49.024;8.246;2023-02-08T11:59:37;33.90;;;12.85;;
22603;SDS011;11469;49.024;8.246;2023-02-08T12:04:46;31.85;;;13.18;;
22603;SDS011;11469;49.024;8.246;2023-02-08T12:21:26;28.67;;;13.23;;
22603;SDS011;11469;49.024;8.246;2023-02-08T12:24:02;19.98;;;10.00;;
22603;SDS011;11469;49.024;8.246;2023-02-08T12:26:45;25.15;;;12.65;;
22603;SDS011;11469;49.024;8.246;2023-02-08T12:32:17;21.63;;;9.77;;
22603;SDS011;11469;49.024;8.246;2023-02-08T12:46:50;26.30;;;11.47;;
22603;SDS011;11469;49.024;8.246;2023-02-08T12:49:40;21.63;;;10.77;;
22603;SDS011;11469;49.024;8.246;2023-02-08T12:54:51;24.80;;;12.68;;
22603;SDS011;11469;49.024;8.246;2023-02-08T12:57:23;26.33;;;12.93;;
22603;SDS011;11469;49.024;8.246;2023-02-08T13:00:07;35.92;;;12.25;;
22603;SDS011;11469;49.024;8.246;2023-02-08T13:05:23;29.95;;;12.65;;
22603;SDS011;11469;49.024;8.246;2023-02-08T13:07:55;30.60;;;14.00;;
22603;SDS011;11469;49.024;8.246;2023-02-08T13:10:33;33.70;;;13.27;;
22603;SDS011;11469;49.024;8.246;2023-02-08T13:15:45;29.35;;;12.85;;
22603;SDS011;11469;49.024;8.246;2023-02-08T13:18:23;34.05;;;12.90;;
22603;SDS011;11469;49.024;8.246;2023-02-08T13:21:15;25.95;;;11.80;;
22603;SDS011;11469;49.024;8.246;2023-02-08T13:23:46;27.80;;;13.18;;
22603;SDS011;11469;49.024;8.246;2023-02-08T13:26:17;24.30;;;11.95;;
22603;SDS011;11469;49.024;8.246;2023-02-08T13:28:52;28.60;;;11.88;;
22603;SDS011;11469;49.024;8.246;2023-02-08T13:31:26;27.65;;;12.07;;
22603;SDS011;11469;49.024;8.246;2023-02-08T13:33:57;26.65;;;12.63;;
22603;SDS011;11469;49.024;8.246;2023-02-08T13:36:32;28.00;;;12.50;;
22603;SDS011;11469;49.024;8.246;2023-02-08T13:39:00;22.55;;;10.68;;
22603;SDS011;11469;49.024;8.246;2023-02-08T13:41:28;26.38;;;11.45;;
22603;SDS011;11469;49.024;8.246;2023-02-08T13:43:57;29.80;;;12.07;;
22603;SDS011;11469;49.024;8.246;2023-02-08T13:46:27;24.55;;;10.70;;
22603;SDS011;11469;49.024;8.246;2023-02-08T13:49:10;26.85;;;12.82;;
22603;SDS011;11469;49.024;8.246;2023-02-08T13:52:06;22.02;;;11.07;;
22603;SDS011;11469;49.024;8.246;2023-02-08T13:54:32;27.23;;;11.55;;
22603;SDS011;11469;49.024;8.246;2023-02-08T13:56:58;25.20;;;12.00;;
22603;SDS011;11469;49.024;8.246;2023-02-08T14:04:46;28.55;;;11.55;;
22603;SDS011;11469;49.024;8.246;2023-02-08T14:07:14;23.83;;;11.50;;
22603;SDS011;11469;49.024;8.246;2023-02-08T14:17:43;25.73;;;9.23;;
22603;SDS011;11469;49.024;8.246;2023-02-08T14:20:16;19.55;;;9.05;;
22603;SDS011;11469;49.024;8.246;2023-02-08T14:22:53;19.88;;;9.73;;
22603;SDS011;11469;49.024;8.246;2023-02-08T14:25:37;20.15;;;9.88;;
22603;SDS011;11469;49.024;8.246;2023-02-08T14:28:06;20.83;;;9.43;;
22603;SDS011;11469;49.024;8.246;2023-02-08T14:30:50;19.88;;;8.85;;
22603;SDS011;11469;49.024;8.246;2023-02-08T14:33:20;21.25;;;8.25;;
22603;SDS011;11469;49.024;8.246;2023-02-08T14:35:55;21.95;;;7.95;;
22603;SDS011;11469;49.024;8.246;2023-02-08T14:40:58;18.15;;;9.20;;
22603;SDS011;11469;49.024;8.246;2023-02-08T14:43:30;18.88;;;8.95;;
22603;SDS011;11469;49.024;8.246;2023-02-08T14:45:55;17.90;;;8.85;;
22603;SDS011;11469;49.024;8.246;2023-02-08T14:48:31;19.40;;;8.43;;
22603;SDS011;11469;49.024;8.246;2023-02-08T14:51:05;17.40;;;8.80;;
22603;SDS011;11469;49.024;8.246;2023-02-08T14:56:27;21.83;;;8.57;;
22603;SDS011;11469;49.024;8.246;2023-02-08T14:58:59;18.73;;;9.15;;
22603;SDS011;11469;49.024;8.246;2023-02-08T15:03:55;22.05;;;8.63;;
22603;SDS011;11469;49.024;8.246;2023-02-08T15:09:01;21.67;;;8.70;;
22603;SDS011;11469;49.024;8.246;2023-02-08T15:11:30;18.80;;;8.98;;
22603;SDS011;11469;49.024;8.246;2023-02-08T15:13:59;16.55;;;7.70;;
22603;SDS011;11469;49.024;8.246;2023-02-08T15:16:31;17.50;;;8.30;;
22603;SDS011;11469;49.024;8.246;2023-02-08T15:18:59;24.10;;;9.38;;
22603;SDS011;11469;49.024;8.246;2023-02-08T15:21:28;23.17;;;8.95;;
22603;SDS011;11469;49.024;8.246;2023-02-08T15:24:18;17.70;;;8.95;;
22603;SDS011;11469;49.024;8.246;2023-02-08T15:26:51;16.00;;;8.00;;
22603;SDS011;11469;49.024;8.246;2023-02-08T15:29:23;16.23;;;8.02;;
22603;SDS011;11469;49.024;8.246;2023-02-08T15:31:50;20.40;;;8.90;;
22603;SDS011;11469;49.024;8.246;2023-02-08T15:34:16;20.30;;;8.45;;
22603;SDS011;11469;49.024;8.246;2023-02-08T15:36:47;20.58;;;8.88;;
22603;SDS011;11469;49.024;8.246;2023-02-08T15:41:48;26.83;;;10.95;;
22603;SDS011;11469;49.024;8.246;2023-02-08T15:46:39;17.13;;;8.32;;
22603;SDS011;11469;49.024;8.246;2023-02-08T15:49:06;20.38;;;8.95;;
22603;SDS011;11469;49.024;8.246;2023-02-08T15:51:38;18.42;;;8.52;;
22603;SDS011;11469;49.024;8.246;2023-02-08T15:54:04;23.38;;;9.38;;
22603;SDS011;11469;49.024;8.246;2023-02-08T15:56:32;17.15;;;8.63;;
22603;SDS011;11469;49.024;8.246;2023-02-08T15:58:59;24.70;;;8.82;;
22603;SDS011;11469;49.024;8.246;2023-02-08T16:01:27;17.90;;;8.48;;
22603;SDS011;11469;49.024;8.246;2023-02-08T16:03:54;15.63;;;7.68;;
22603;SDS011;11469;49.024;8.246;2023-02-08T16:06:23;16.25;;;8.27;;
22603;SDS011;11469;49.024;8.246;2023-02-08T16:08:55;26.60;;;11.93;;
22603;SDS011;11469;49.024;8.246;2023-02-08T16:11:27;23.25;;;8.88;;
22603;SDS011;11469;49.024;8.246;2023-02-08T16:13:58;20.17;;;8.87;;
22603;SDS011;11469;49.024;8.246;2023-02-08T16:19:27;36.75;;;12.57;;
22603;SDS011;11469;49.024;8.246;2023-02-08T16:22:14;18.80;;;7.88;;
22603;SDS011;11469;49.024;8.246;2023-02-08T16:24:49;21.08;;;8.27;;
22603;SDS011;11469;49.024;8.246;2023-02-08T16:29:51;14.07;;;6.97;;
22603;SDS011;11469;49.024;8.246;2023-02-08T16:32:19;16.27;;;6.93;;
22603;SDS011;11469;49.024;8.246;2023-02-08T16:34:53;20.73;;;8.13;;
22603;SDS011;11469;49.024;8.246;2023-02-08T16:37:22;17.15;;;8.05;;
22603;SDS011;11469;49.024;8.246;2023-02-08T16:42:24;26.25;;;9.63;;
22603;SDS011;11469;49.024;8.246;2023-02-08T16:44:57;24.58;;;9.57;;
22603;SDS011;11469;49.024;8.246;2023-02-08T16:48:18;26.02;;;9.90;;
22603;SDS011;11469;49.024;8.246;2023-02-08T16:50:50;17.15;;;8.10;;
22603;SDS011;11469;49.024;8.246;2023-02-08T16:53:15;25.92;;;8.82;;
22603;SDS011;11469;49.024;8.246;2023-02-08T16:55:41;17.17;;;8.48;;